Terminal Aerodrome Forecast
Issued by NWS Green Bay, WI

Home | Current Version | Previous Version | Graphics & Text | Print | Product List | Glossary On
Versions: 1 2 3 4 5 6 7 8 9 10 11 12 13 14 15 16 17 18 19 20 21 22 23 24 25 26 27 28 29 30 31 32 33 34 35 36 37 38 39 40
000
FTUS43 KGRB 300520
TAFGRB
TAF
KGRB 300520Z 3006/0106 VRB03KT P6SM VCSH SCT015 BKN100
      TEMPO 3006/3010 1 1/2SM BR
     FM301000 33006KT 6SM BR BKN015 BKN035
      TEMPO 3010/3014 3SM BR BKN008
     FM301500 36009KT P6SM BKN020 BKN035
     FM301800 02011KT P6SM BKN035
     FM010000 36006KT P6SM SCT025=

USA.gov is the U.S. government's official web portal to all federal, state and local government web resources and services.